Time;durP1;ratioP1;P1;durP2;ratioP2;P2;SDS_P1;SDS_P2;PMS_P1;PMS_P2;Temp;Humidity;BMP_temperature;BMP_pressure;BME280_temperature;BME280_humidity;BME280_pressure;Samples;Min_cycle;Max_cycle;Signal;HPM_P1;HPM_P2
2022/05/17 00:00:49;;;;;;;8.48;6.80;;;;;;;13.50;87.94;101365.88;4980171;28;20308;-72
2022/05/17 00:03:15;;;;;;;7.35;6.47;;;;;;;13.40;87.78;101368.53;4997556;28;20897;-72
2022/05/17 00:05:43;;;;;;;9.27;6.50;;;;;;;13.45;87.43;101368.09;4979521;28;20449;-72
2022/05/17 00:08:09;;;;;;;8.35;6.57;;;;;;;13.38;87.80;101374.00;4978645;28;20061;-72
2022/05/17 00:10:34;;;;;;;8.10;6.85;;;;;;;13.35;88.04;101362.78;4980115;28;21157;-73
2022/05/17 00:12:59;;;;;;;7.45;6.60;;;;;;;13.29;88.19;101368.63;4998799;28;20374;-72
2022/05/17 00:15:25;;;;;;;7.57;6.88;;;;;;;13.30;87.76;101365.84;5021572;28;20958;-72
2022/05/17 00:17:50;;;;;;;6.63;6.10;;;;;;;13.31;87.98;101367.53;4981403;28;20094;-72
2022/05/17 00:20:16;;;;;;;8.48;6.60;;;;;;;13.31;88.02;101371.97;4967922;28;20014;-73
2022/05/17 00:22:41;;;;;;;8.80;6.00;;;;;;;13.21;88.04;101367.50;5013698;28;20033;-72
2022/05/17 00:25:07;;;;;;;7.55;6.18;;;;;;;13.25;87.86;101367.22;5007561;28;20242;-73
2022/05/17 00:27:32;;;;;;;6.53;5.97;;;;;;;13.27;87.63;101379.41;4978506;28;20010;-72
2022/05/17 00:29:58;;;;;;;9.43;5.93;;;;;;;13.22;87.22;101368.34;4988826;28;20093;-72
2022/05/17 00:32:23;;;;;;;6.60;5.97;;;;;;;13.25;87.17;101376.03;4985996;28;20009;-72
2022/05/17 00:34:48;;;;;;;7.57;6.00;;;;;;;13.44;86.48;101361.09;5008479;28;20040;-72
2022/05/17 00:37:14;;;;;;;6.30;5.78;;;;;;;13.34;85.72;101367.25;4972469;28;20062;-73
2022/05/17 00:39:39;;;;;;;7.53;5.75;;;;;;;13.29;86.23;101369.47;4998814;28;20643;-72
2022/05/17 00:42:05;;;;;;;8.18;6.05;;;;;;;13.18;87.17;101359.81;4990853;28;20798;-73
2022/05/17 00:44:43;;;;;;;8.07;6.00;;;;;;;13.16;87.07;101359.09;4970944;28;20013;-72
2022/05/17 00:47:31;;;;;;;9.30;5.85;;;;;;;13.04;87.40;101355.75;4995909;27;20017;-72
2022/05/17 00:50:04;;;;;;;7.00;5.97;;;;;;;13.04;87.47;101352.22;4975938;28;20063;-72
2022/05/17 00:52:50;;;;;;;8.00;5.97;;;;;;;12.97;87.29;101337.81;4993471;28;20013;-72
2022/05/17 00:55:18;;;;;;;6.20;5.70;;;;;;;13.09;86.92;101343.88;4975531;28;20036;-72
2022/05/17 00:57:51;;;;;;;6.03;5.50;;;;;;;13.01;87.19;101342.72;4976172;28;20025;-72
2022/05/17 01:00:19;;;;;;;5.95;5.55;;;;;;;12.91;87.33;101341.88;4955704;28;20014;-73
2022/05/17 01:02:47;;;;;;;6.00;5.50;;;;;;;12.91;87.06;101343.69;4973470;28;20017;-72
2022/05/17 01:05:14;;;;;;;6.80;6.00;;;;;;;12.83;87.25;101342.56;4957230;28;20370;-73
2022/05/17 01:07:41;;;;;;;7.53;5.90;;;;;;;12.82;87.55;101343.53;4958820;28;20017;-72
2022/05/17 01:10:08;;;;;;;9.32;5.90;;;;;;;12.75;88.16;101349.53;4974004;28;20017;-73
2022/05/17 01:12:36;;;;;;;6.30;5.78;;;;;;;12.78;87.87;101350.09;4956973;28;20028;-72
2022/05/17 01:15:03;;;;;;;6.15;5.72;;;;;;;12.65;87.50;101345.03;4985407;28;20005;-72
2022/05/17 01:17:32;;;;;;;7.15;5.60;;;;;;;12.67;87.82;101339.59;4972950;28;20017;-72
2022/05/17 01:19:58;;;;;;;5.82;5.40;;;;;;;12.62;87.89;101339.16;4991708;28;20623;-73
2022/05/17 01:22:23;;;;;;;8.75;5.90;;;;;;;12.70;87.79;101340.16;4973276;28;20754;-71
2022/05/17 01:24:48;;;;;;;6.05;5.50;;;;;;;12.60;87.80;101336.63;4991144;28;20009;-73
2022/05/17 01:27:17;;;;;;;6.22;5.57;;;;;;;12.65;88.30;101338.91;4973913;28;20017;-73
2022/05/17 01:29:44;;;;;;;6.07;5.57;;;;;;;12.60;88.69;101347.25;4983600;28;20016;-72
2022/05/17 01:32:10;;;;;;;7.55;5.88;;;;;;;12.68;87.56;101347.41;4954658;28;20045;-71
2022/05/17 01:34:35;;;;;;;6.47;5.82;;;;;;;12.71;87.01;101344.47;4973534;28;20151;-73
2022/05/17 01:37:01;;;;;;;6.93;5.60;;;;;;;12.73;86.41;101356.78;4990282;28;20331;-72
2022/05/17 01:39:28;;;;;;;6.43;5.60;;;;;;;12.64;86.54;101353.97;4972202;28;20124;-71
2022/05/17 01:41:53;;;;;;;5.70;5.30;;;;;;;12.57;86.48;101352.84;4991987;28;20109;-73
2022/05/17 01:44:18;;;;;;;5.18;4.88;;;;;;;12.48;87.03;101354.50;4988618;28;20892;-72
2022/05/17 01:46:44;;;;;;;6.20;5.30;;;;;;;12.77;86.34;101358.22;4971895;28;20033;-72
2022/05/17 01:49:09;;;;;;;5.93;5.43;;;;;;;12.57;86.11;101358.16;5006556;28;20026;-72
2022/05/17 01:51:35;;;;;;;6.07;5.47;;;;;;;12.57;86.29;101352.84;4970227;28;20813;-72
2022/05/17 01:54:00;;;;;;;6.47;5.57;;;;;;;12.69;85.43;101348.25;5008761;28;20107;-73
2022/05/17 01:56:25;;;;;;;6.75;5.22;;;;;;;12.65;85.05;101350.34;4972063;28;20036;-72
2022/05/17 01:58:51;;;;;;;5.88;5.47;;;;;;;12.66;85.28;101346.72;4972084;28;20017;-72
2022/05/17 02:01:16;;;;;;;5.60;5.20;;;;;;;12.42;86.02;101333.78;4970785;28;20687;-72
2022/05/17 02:03:41;;;;;;;6.45;5.45;;;;;;;12.37;86.83;101344.78;4987480;28;20997;-71
2022/05/17 02:06:07;;;;;;;9.40;5.30;;;;;;;12.42;86.64;101344.38;4972761;28;20030;-72
2022/05/17 02:08:32;;;;;;;5.60;5.10;;;;;;;12.29;87.13;101341.97;4972307;28;20117;-74
2022/05/17 02:10:58;;;;;;;5.85;5.30;;;;;;;12.26;87.13;101349.38;4973237;28;20026;-72
2022/05/17 02:13:23;;;;;;;6.05;5.45;;;;;;;12.10;87.09;101342.72;4992657;28;20619;-72
2022/05/17 02:15:48;;;;;;;8.73;5.75;;;;;;;12.08;87.53;101343.84;4988730;28;20013;-73
2022/05/17 02:18:14;;;;;;;6.15;5.65;;;;;;;12.05;87.58;101344.94;4993726;28;20018;-70
2022/05/17 02:20:39;;;;;;;7.22;5.70;;;;;;;12.01;87.81;101347.03;4973373;28;20025;-72
2022/05/17 02:23:07;;;;;;;5.85;5.25;;;;;;;12.05;87.71;101344.94;4972243;28;20036;-71
2022/05/17 02:25:33;;;;;;;6.20;5.43;;;;;;;12.02;87.49;101342.53;4976954;28;20420;-74
2022/05/17 02:27:58;;;;;;;6.80;5.75;;;;;;;12.03;87.49;101345.06;4974347;28;20475;-73
2022/05/17 02:30:24;;;;;;;7.07;5.30;;;;;;;12.12;86.95;101347.91;4974442;28;20021;-74
2022/05/17 02:32:49;;;;;;;7.43;5.22;;;;;;;12.13;86.50;101345.13;4976199;28;20020;-72
2022/05/17 02:35:14;;;;;;;5.63;5.13;;;;;;;12.26;85.93;101354.69;4993109;28;20013;-72
2022/05/17 02:37:40;;;;;;;6.63;5.32;;;;;;;12.13;86.03;101358.38;4981742;28;20009;-71
2022/05/17 02:40:06;;;;;;;5.70;5.18;;;;;;;12.13;86.57;101360.22;4975430;28;20057;-72
2022/05/17 02:42:32;;;;;;;5.45;4.95;;;;;;;12.15;86.61;101363.56;4971919;28;20024;-72
2022/05/17 02:44:57;;;;;;;5.70;5.13;;;;;;;12.17;85.81;101365.09;4973953;28;20018;-72
2022/05/17 02:47:22;;;;;;;5.68;5.30;;;;;;;12.08;85.98;101362.41;4975006;28;20027;-73
2022/05/17 02:49:48;;;;;;;5.88;5.03;;;;;;;11.94;86.53;101375.00;4991747;28;20025;-73
2022/05/17 02:52:13;;;;;;;7.70;5.28;;;;;;;11.90;86.96;101370.06;4974006;28;20749;-72
2022/05/17 02:54:39;;;;;;;5.85;5.35;;;;;;;11.86;87.18;101375.66;4955720;28;20299;-71
2022/05/17 02:57:05;;;;;;;5.97;5.22;;;;;;;11.83;86.91;101380.34;4974801;28;20005;-72
2022/05/17 02:59:31;;;;;;;6.00;5.38;;;;;;;11.80;86.66;101372.66;4992978;28;20017;-72
2022/05/17 03:01:56;;;;;;;5.80;5.30;;;;;;;11.74;87.08;101370.53;4991389;28;20018;-72
2022/05/17 03:04:21;;;;;;;5.80;5.30;;;;;;;11.76;87.07;101373.88;4976056;28;20026;-72
2022/05/17 03:06:47;;;;;;;6.30;5.70;;;;;;;11.73;87.35;101374.16;4976936;28;20226;-72
2022/05/17 03:09:13;;;;;;;6.47;5.30;;;;;;;11.65;87.61;101378.28;4960841;28;20427;-72
2022/05/17 03:11:42;;;;;;;5.82;5.20;;;;;;;11.63;87.96;101374.94;4959981;28;20006;-72
2022/05/17 03:14:07;;;;;;;6.32;5.80;;;;;;;11.66;88.17;101374.69;4965521;28;20013;-72
2022/05/17 03:16:33;;;;;;;5.82;5.30;;;;;;;11.64;87.90;101373.94;4984117;28;20052;-72
2022/05/17 03:18:59;;;;;;;5.65;5.25;;;;;;;11.65;87.82;101378.28;4983066;28;20811;-72
2022/05/17 03:21:24;;;;;;;6.00;5.32;;;;;;;11.61;87.79;101376.03;4983833;28;20021;-72
2022/05/17 03:23:49;;;;;;;5.45;5.05;;;;;;;11.66;87.62;101385.28;5000055;28;20929;-71
2022/05/17 03:26:15;;;;;;;6.00;5.40;;;;;;;11.76;87.25;101380.06;5003524;27;20020;-73
2022/05/17 03:28:40;;;;;;;6.20;5.65;;;;;;;11.70;87.42;101375.25;5022349;27;20425;-72
2022/05/17 03:31:09;;;;;;;6.50;5.90;;;;;;;11.65;87.88;101380.13;4979061;28;20032;-72
2022/05/17 03:33:34;;;;;;;6.45;5.78;;;;;;;11.64;87.59;101386.38;5008540;28;20525;-72
2022/05/17 03:36:00;;;;;;;6.10;5.70;;;;;;;11.67;87.68;101386.13;5008699;28;20112;-72
2022/05/17 03:38:25;;;;;;;6.72;5.65;;;;;;;11.71;87.33;101392.84;4976648;28;21100;-72
2022/05/17 03:40:52;;;;;;;7.13;5.60;;;;;;;11.73;87.55;101405.97;4982586;28;20021;-72
2022/05/17 03:43:19;;;;;;;6.07;5.40;;;;;;;11.71;87.51;101398.16;4987178;28;20022;-72
2022/05/17 03:45:44;;;;;;;6.97;5.10;;;;;;;11.67;87.47;101400.19;4947958;28;20070;-72
2022/05/17 03:48:09;;;;;;;6.82;6.15;;;;;;;11.65;87.80;101399.50;4985643;28;20018;-72
2022/05/17 03:50:35;;;;;;;5.80;5.40;;;;;;;11.62;87.95;101394.47;4967126;28;20327;-72
2022/05/17 03:53:01;;;;;;;7.55;5.90;;;;;;;11.58;88.35;101402.81;4942606;28;20012;-72
2022/05/17 03:55:26;;;;;;;6.10;5.60;;;;;;;11.62;88.21;101402.41;4977132;28;20018;-72
2022/05/17 03:57:51;;;;;;;7.45;5.70;;;;;;;11.67;88.25;101402.84;5007400;28;20419;-72
2022/05/17 04:00:17;;;;;;;6.22;5.65;;;;;;;11.72;87.88;101398.97;4971798;28;20021;-73
2022/05/17 04:02:43;;;;;;;7.63;6.13;;;;;;;11.62;88.40;101404.19;4991100;28;20025;-73
2022/05/17 04:05:09;;;;;;;7.20;6.00;;;;;;;11.63;88.72;101398.81;4972884;28;20442;-74
2022/05/17 04:07:34;;;;;;;6.60;5.93;;;;;;;11.67;88.47;101396.72;4989840;28;20786;-73
2022/05/17 04:10:00;;;;;;;8.30;5.75;;;;;;;11.80;88.07;101408.00;4989592;28;20040;-73
2022/05/17 04:12:25;;;;;;;6.45;5.95;;;;;;;11.81;88.06;101401.69;4973290;28;20021;-73
2022/05/17 04:14:52;;;;;;;6.45;5.95;;;;;;;11.85;88.49;101404.94;4988466;28;20012;-72
2022/05/17 04:17:18;;;;;;;6.63;5.90;;;;;;;11.86;88.36;101409.28;4977020;28;20914;-73
2022/05/17 04:19:43;;;;;;;8.77;5.70;;;;;;;11.93;88.22;101399.84;5011669;28;20017;-72
2022/05/17 04:22:08;;;;;;;6.80;5.95;;;;;;;11.99;87.78;101404.66;4991757;28;20095;-74
2022/05/17 04:24:34;;;;;;;6.32;5.82;;;;;;;12.05;87.91;101408.59;4995059;28;20018;-72
2022/05/17 04:26:59;;;;;;;7.05;6.40;;;;;;;12.12;87.93;101416.88;4993782;28;20819;-73
2022/05/17 04:29:25;;;;;;;7.32;6.68;;;;;;;12.15;88.65;101408.66;4994398;28;20575;-72
2022/05/17 04:31:50;;;;;;;8.95;6.30;;;;;;;12.27;88.75;101420.03;4994594;28;20902;-72
2022/05/17 04:34:16;;;;;;;6.88;6.18;;;;;;;12.31;89.06;101416.13;4978699;28;20561;-73
2022/05/17 04:36:41;;;;;;;8.75;6.47;;;;;;;12.42;89.04;101409.91;4962988;28;20017;-72
2022/05/17 04:39:07;;;;;;;7.57;6.47;;;;;;;12.54;89.09;101409.69;4986382;28;20074;-71
2022/05/17 04:41:32;;;;;;;6.95;6.40;;;;;;;12.63;89.32;101409.88;4995910;28;20324;-73
2022/05/17 04:43:57;;;;;;;8.25;7.32;;;;;;;12.68;89.43;101408.50;4988220;28;20794;-73
2022/05/17 04:46:23;;;;;;;7.68;6.50;;;;;;;12.84;89.12;101418.59;4960072;28;20022;-73
2022/05/17 04:48:48;;;;;;;8.60;6.75;;;;;;;12.95;88.80;101414.19;4991870;28;20005;-75
2022/05/17 04:51:14;;;;;;;7.20;6.60;;;;;;;13.04;88.59;101414.19;4974211;28;20698;-74
2022/05/17 04:53:40;;;;;;;8.27;7.03;;;;;;;13.16;88.61;101422.06;4991427;28;20429;-74
2022/05/17 04:56:06;;;;;;;8.25;7.50;;;;;;;13.22;88.60;101416.19;4975419;28;20005;-74
2022/05/17 04:58:32;;;;;;;7.88;7.25;;;;;;;13.32;88.43;101429.50;4990362;28;20042;-73
2022/05/17 05:00:57;;;;;;;8.00;7.15;;;;;;;13.38;89.16;101426.28;4953680;28;20032;-73
2022/05/17 05:03:22;;;;;;;9.88;7.88;;;;;;;13.43;88.75;101423.25;4972936;28;20750;-73
2022/05/17 05:05:48;;;;;;;8.23;7.43;;;;;;;13.45;89.40;101424.75;4989526;28;20113;-73
2022/05/17 05:08:13;;;;;;;7.90;7.20;;;;;;;13.54;89.01;101431.09;4988970;28;20013;-72
2022/05/17 05:10:38;;;;;;;8.27;7.50;;;;;;;13.58;88.69;101424.50;4969399;28;20101;-73
2022/05/17 05:13:04;;;;;;;10.85;7.57;;;;;;;13.68;88.64;101422.69;4982851;28;20036;-73
2022/05/17 05:15:31;;;;;;;8.48;7.25;;;;;;;13.81;88.42;101438.34;4990526;28;20547;-73
2022/05/17 05:17:57;;;;;;;8.73;7.68;;;;;;;13.84;88.64;101432.75;4973252;28;21010;-72
2022/05/17 05:20:22;;;;;;;10.57;7.43;;;;;;;13.94;88.80;101431.91;4973880;28;20037;-73
2022/05/17 05:22:48;;;;;;;9.55;7.35;;;;;;;13.98;88.73;101433.31;4991187;28;20421;-74
2022/05/17 05:25:14;;;;;;;8.50;7.60;;;;;;;14.09;88.72;101428.66;4981412;28;20826;-73
2022/05/17 05:27:40;;;;;;;8.65;7.28;;;;;;;14.19;88.33;101435.78;4992456;28;20709;-74
2022/05/17 05:30:06;;;;;;;8.88;8.00;;;;;;;14.20;87.76;101437.44;4969800;28;20032;-73
2022/05/17 05:32:32;;;;;;;7.70;7.03;;;;;;;14.32;87.70;101446.13;5015004;27;20014;-74
2022/05/17 05:34:57;;;;;;;8.63;7.43;;;;;;;14.38;87.22;101443.72;5014222;27;20884;-73
2022/05/17 05:37:22;;;;;;;7.70;7.00;;;;;;;14.43;86.90;101435.31;5012381;27;20271;-74
2022/05/17 05:39:48;;;;;;;8.38;7.57;;;;;;;14.59;86.23;101437.34;5012226;27;20056;-74
2022/05/17 05:42:13;;;;;;;8.35;7.10;;;;;;;14.65;86.23;101436.81;5029142;27;20013;-74
2022/05/17 05:44:38;;;;;;;7.97;7.28;;;;;;;14.70;86.43;101442.50;5002503;28;20018;-74
2022/05/17 05:47:04;;;;;;;8.73;7.40;;;;;;;14.74;86.62;101433.25;4971200;28;20325;-74
2022/05/17 05:49:30;;;;;;;8.55;7.10;;;;;;;14.86;86.55;101438.38;4974679;28;20018;-74
2022/05/17 05:51:55;;;;;;;7.93;7.20;;;;;;;14.92;86.43;101441.28;4974226;28;20796;-74
2022/05/17 05:54:21;;;;;;;8.15;7.28;;;;;;;14.93;86.55;101450.13;4992287;28;20268;-75
2022/05/17 05:56:46;;;;;;;7.88;7.03;;;;;;;14.97;85.94;101435.50;4971241;28;20093;-74
2022/05/17 05:59:12;;;;;;;7.30;6.80;;;;;;;15.06;85.96;101445.28;4978427;28;20036;-75
2022/05/17 06:01:37;;;;;;;7.57;6.97;;;;;;;15.11;86.23;101451.00;4978408;28;20288;-74
2022/05/17 06:04:02;;;;;;;7.90;7.05;;;;;;;15.25;85.71;101462.16;4979707;28;20362;-75
2022/05/17 06:06:28;;;;;;;7.13;6.53;;;;;;;15.33;84.89;101462.25;4979761;28;20289;-73
2022/05/17 06:08:54;;;;;;;7.22;6.53;;;;;;;15.48;84.62;101472.41;4977789;28;20710;-72
2022/05/17 06:11:20;;;;;;;8.05;6.28;;;;;;;15.60;83.54;101471.19;5004061;28;20029;-74
2022/05/17 06:13:46;;;;;;;7.53;6.70;;;;;;;15.61;83.18;101475.53;4977366;28;20029;-73
2022/05/17 06:16:11;;;;;;;7.30;6.60;;;;;;;15.61;83.58;101472.88;4984455;28;20298;-73
2022/05/17 06:18:36;;;;;;;7.10;6.40;;;;;;;15.62;84.12;101471.88;4996806;28;20013;-74
2022/05/17 06:21:02;;;;;;;6.68;6.10;;;;;;;15.61;83.78;101471.03;4991028;28;20014;-74
2022/05/17 06:23:29;;;;;;;7.35;6.18;;;;;;;15.69;83.49;101461.44;4963205;28;20212;-73
2022/05/17 06:25:55;;;;;;;6.32;5.82;;;;;;;15.71;83.12;101473.63;4998869;28;20776;-74
2022/05/17 06:28:20;;;;;;;6.60;6.00;;;;;;;15.71;83.81;101470.97;5001389;28;20033;-75
2022/05/17 06:30:45;;;;;;;6.43;5.82;;;;;;;15.77;83.83;101470.34;5017575;28;20016;-75
2022/05/17 06:33:12;;;;;;;7.95;6.47;;;;;;;15.84;83.97;101459.94;5019841;28;20018;-73
2022/05/17 06:35:38;;;;;;;7.60;5.30;;;;;;;15.89;83.19;101459.47;4983274;28;20082;-74
2022/05/17 06:38:04;;;;;;;6.57;5.80;;;;;;;15.93;82.32;101458.16;4983735;28;20301;-74
2022/05/17 06:40:30;;;;;;;6.05;5.35;;;;;;;15.94;82.13;101447.31;4977660;28;20513;-73
2022/05/17 06:42:55;;;;;;;6.65;6.05;;;;;;;15.98;82.87;101445.19;4983251;28;20024;-74
2022/05/17 06:45:20;;;;;;;6.88;5.55;;;;;;;16.22;83.17;101449.88;4961542;28;20021;-74
2022/05/17 06:47:46;;;;;;;5.53;5.07;;;;;;;16.41;82.34;101448.84;4992168;28;20012;-74
2022/05/17 06:50:11;;;;;;;5.95;5.22;;;;;;;16.43;80.43;101449.50;5010177;28;20398;-73
2022/05/17 06:52:36;;;;;;;6.38;5.25;;;;;;;16.56;79.38;101450.91;4961137;28;20014;-73
2022/05/17 06:55:02;;;;;;;4.72;4.32;;;;;;;16.62;78.37;101447.59;4953432;28;20121;-73
2022/05/17 06:57:28;;;;;;;12.73;4.60;;;;;;;16.75;77.87;101440.00;4968072;28;20014;-74
2022/05/17 06:59:53;;;;;;;4.85;4.35;;;;;;;16.89;77.06;101448.41;4987329;28;20555;-74
2022/05/17 07:02:18;;;;;;;6.82;4.70;;;;;;;16.92;76.97;101453.44;4956328;28;20044;-74
2022/05/17 07:04:44;;;;;;;6.53;4.85;;;;;;;16.89;77.31;101465.28;4949753;28;20015;-74
2022/05/17 07:07:09;;;;;;;5.30;4.80;;;;;;;16.99;76.88;101466.00;4948402;28;20033;-74
2022/05/17 07:09:35;;;;;;;6.85;4.78;;;;;;;17.07;76.95;101470.53;4949822;28;20227;-74
2022/05/17 07:14:44;;;;;;;;;;;;;;;17.19;74.80;101464.88;5004825;28;20020;-73
2022/05/17 07:17:12;;;;;;;8.23;4.80;;;;;;;17.30;75.06;101462.75;4960905;28;19953;-74
2022/05/17 07:19:38;;;;;;;5.40;4.38;;;;;;;17.50;74.76;101460.63;4952878;28;20434;-74
2022/05/17 07:22:04;;;;;;;6.10;4.75;;;;;;;17.57;75.94;101467.97;4948119;28;20083;-73
2022/05/17 07:24:30;;;;;;;5.57;4.63;;;;;;;17.74;76.58;101464.34;4949643;28;20037;-74
2022/05/17 07:26:56;;;;;;;6.35;4.38;;;;;;;17.86;75.42;101471.00;4952426;28;20015;-74
2022/05/17 07:29:21;;;;;;;6.28;4.03;;;;;;;18.02;74.70;101478.25;4951508;28;20002;-74
2022/05/17 07:31:46;;;;;;;4.97;4.47;;;;;;;18.01;73.39;101473.06;4978580;28;20961;-74
2022/05/17 07:34:12;;;;;;;4.65;4.20;;;;;;;18.22;73.85;101477.91;4985974;28;20028;-74
2022/05/17 07:36:38;;;;;;;3.70;3.40;;;;;;;18.37;71.25;101475.38;4985910;28;20005;-73
2022/05/17 07:39:03;;;;;;;5.75;3.28;;;;;;;18.42;67.54;101478.38;4978151;28;20838;-74
2022/05/17 07:41:29;;;;;;;5.60;2.80;;;;;;;18.63;68.81;101466.28;5008833;28;20020;-73
2022/05/17 07:43:54;;;;;;;4.10;2.63;;;;;;;18.74;66.10;101465.91;5030859;28;20276;-74
2022/05/17 07:46:19;;;;;;;4.75;2.60;;;;;;;18.86;65.10;101477.91;4962023;28;20022;-74
2022/05/17 07:48:45;;;;;;;4.28;2.53;;;;;;;19.03;64.79;101475.19;4991579;28;20031;-75
2022/05/17 07:51:10;;;;;;;8.65;3.00;;;;;;;19.15;65.55;101475.63;4986209;28;20852;-74
2022/05/17 07:53:36;;;;;;;4.30;2.85;;;;;;;19.39;64.29;101472.00;5011260;28;20264;-74
2022/05/17 07:56:02;;;;;;;5.90;2.88;;;;;;;19.45;64.03;101467.75;4970675;28;20018;-75
2022/05/17 07:58:28;;;;;;;5.40;3.28;;;;;;;19.53;63.38;101473.06;4957954;28;20016;-74
2022/05/17 08:00:53;;;;;;;5.45;2.85;;;;;;;19.68;62.71;101481.19;4974522;28;20026;-74
2022/05/17 08:03:19;;;;;;;5.15;3.03;;;;;;;19.86;62.51;101484.44;4958275;28;20013;-74
2022/05/17 08:05:44;;;;;;;5.10;2.88;;;;;;;20.11;62.57;101484.22;4958003;28;20017;-74
2022/05/17 08:08:09;;;;;;;6.07;2.90;;;;;;;20.27;62.15;101490.47;4974943;28;20943;-74
2022/05/17 08:10:35;;;;;;;5.20;3.20;;;;;;;20.36;62.83;101492.91;4973127;28;20109;-75
2022/05/17 08:13:00;;;;;;;5.70;3.35;;;;;;;20.36;61.62;101490.22;4980160;28;20060;-75
2022/05/17 08:15:27;;;;;;;5.32;3.63;;;;;;;20.30;62.42;101487.41;4954563;28;20029;-74
2022/05/17 08:17:53;;;;;;;7.97;3.65;;;;;;;20.08;62.55;101484.59;4964714;28;20072;-74
2022/05/17 08:20:18;;;;;;;3.53;3.17;;;;;;;20.21;63.51;101487.50;4968894;28;20545;-74
2022/05/17 08:22:44;;;;;;;6.65;3.30;;;;;;;20.39;63.04;101486.31;4970704;28;20780;-74
2022/05/17 08:27:56;;;;;;;5.68;3.20;;;;;;;20.70;61.98;101488.03;4974599;28;20955;-74
2022/05/17 08:30:22;;;;;;;4.90;3.50;;;;;;;20.86;61.94;101492.41;4992494;28;20124;-74
2022/05/17 08:33:17;;;;;;;7.47;3.50;;;;;;;20.77;60.35;101488.94;4971861;28;20006;-75
2022/05/17 08:35:49;;;;;;;5.20;3.42;;;;;;;21.08;61.28;101496.81;4966196;28;20017;-74
2022/05/17 08:38:20;;;;;;;5.93;3.40;;;;;;;21.08;60.83;101490.59;4991306;28;20978;-75
2022/05/17 08:41:25;;;;;;;4.57;3.13;;;;;;;21.30;58.99;101491.47;4988674;28;20823;-75
2022/05/17 08:44:14;;;;;;;4.90;3.40;;;;;;;21.55;58.22;101496.56;4906746;28;20074;-74
2022/05/17 08:46:56;;;;;;;5.35;3.50;;;;;;;21.53;57.69;101499.44;4948083;28;20055;-74
2022/05/17 08:49:26;;;;;;;5.32;3.10;;;;;;;21.49;57.86;101497.25;4973921;28;20462;-74
2022/05/17 08:52:00;;;;;;;5.80;3.25;;;;;;;21.65;58.55;101497.06;4956422;28;20022;-75
2022/05/17 08:54:31;;;;;;;8.18;2.80;;;;;;;22.09;58.91;101504.09;4974628;28;20617;-74
2022/05/17 08:57:38;;;;;;;4.07;2.75;;;;;;;22.49;55.85;101497.34;4968060;28;20252;-75
2022/05/17 09:00:19;;;;;;;5.45;2.85;;;;;;;22.70;56.44;101493.75;4976173;28;20117;-74
2022/05/17 09:02:59;;;;;;;6.82;2.92;;;;;;;22.93;54.71;101501.56;4968935;28;20034;-74
2022/05/17 09:05:36;;;;;;;6.82;3.38;;;;;;;22.67;52.04;101494.16;4949781;28;20575;-74
2022/05/17 09:08:28;;;;;;;5.28;2.80;;;;;;;22.74;52.68;101495.03;4934406;28;20315;-75
2022/05/17 09:10:58;;;;;;;6.80;2.60;;;;;;;22.90;53.19;101494.69;4950966;28;20424;-75
2022/05/17 09:14:01;;;;;;;4.18;2.70;;;;;;;22.74;54.43;101493.16;4973583;28;20052;-75
2022/05/17 09:16:36;;;;;;;6.32;2.72;;;;;;;22.77;52.93;101494.63;4984056;28;20033;-74
2022/05/17 09:19:01;;;;;;;5.43;2.58;;;;;;;23.03;50.74;101495.78;4956532;28;20326;-75
2022/05/17 09:21:30;;;;;;;4.82;3.15;;;;;;;23.12;53.36;101494.59;4957858;28;20955;-74
2022/05/17 09:24:10;;;;;;;5.13;2.42;;;;;;;23.37;54.15;101496.78;4977823;28;20082;-74
2022/05/17 09:26:36;;;;;;;7.22;2.42;;;;;;;23.25;51.89;101489.25;4969695;28;20052;-75
2022/05/17 09:29:13;;;;;;;5.57;2.15;;;;;;;23.48;50.88;101491.59;4960632;28;20014;-74
2022/05/17 09:31:38;;;;;;;3.92;2.40;;;;;;;23.47;52.21;101489.09;4954110;28;20282;-76
2022/05/17 09:34:07;;;;;;;5.60;2.58;;;;;;;23.56;49.43;101487.84;4995797;28;20018;-76
2022/05/17 09:36:49;;;;;;;6.40;2.90;;;;;;;23.64;50.93;101486.84;4984730;28;20478;-76
2022/05/17 09:39:19;;;;;;;5.40;2.60;;;;;;;23.89;51.63;101488.97;4986942;28;20018;-75
2022/05/17 09:41:44;;;;;;;7.60;2.55;;;;;;;24.01;49.53;101490.00;4984101;28;20021;-75
2022/05/17 09:44:12;;;;;;;2.30;1.80;;;;;;;24.29;47.45;101484.38;4980201;28;20021;-75
2022/05/17 09:46:45;;;;;;;4.10;1.83;;;;;;;24.26;45.09;101490.22;4987243;28;20118;-75
2022/05/17 09:52:44;;;;;;;3.33;1.45;;;;;;;24.45;46.41;101487.69;4979547;28;19915;-74
2022/05/17 09:55:22;;;;;;;4.15;1.65;;;;;;;24.63;45.67;101477.06;4997136;28;20082;-75
2022/05/17 09:58:04;;;;;;;2.35;1.20;;;;;;;24.48;44.81;101480.00;5002998;28;20055;-75
2022/05/17 10:00:42;;;;;;;3.50;1.67;;;;;;;24.32;45.37;101486.69;4971714;28;20108;-75
2022/05/17 10:03:13;;;;;;;3.67;1.50;;;;;;;24.33;43.91;101479.41;4981183;28;20018;-75
2022/05/17 10:05:43;;;;;;;2.17;1.52;;;;;;;24.20;42.63;101477.53;4989810;28;20033;-74
2022/05/17 10:08:14;;;;;;;3.72;1.63;;;;;;;24.99;44.37;101477.56;4973298;28;20288;-75
2022/05/17 10:11:06;;;;;;;1.63;1.50;;;;;;;25.48;43.48;101475.22;5000470;28;20396;-75
2022/05/17 10:14:08;;;;;;;2.65;1.30;;;;;;;26.27;38.58;101472.97;4945211;27;20026;-75
2022/05/17 10:16:47;;;;;;;3.42;1.30;;;;;;;26.57;37.83;101474.94;4971639;28;20026;-76
2022/05/17 10:19:21;;;;;;;2.40;1.30;;;;;;;26.56;41.14;101467.84;4967527;28;20117;-75
2022/05/17 10:22:04;;;;;;;6.82;1.40;;;;;;;27.02;37.58;101465.69;4963111;28;20014;-75
2022/05/17 10:24:47;;;;;;;3.00;1.60;;;;;;;26.72;41.71;101456.44;4976611;28;20221;-76
2022/05/17 10:27:30;;;;;;;3.95;1.65;;;;;;;26.44;40.95;101458.78;4963890;28;20487;-74
2022/05/17 10:30:07;;;;;;;2.73;1.40;;;;;;;27.34;43.06;101454.56;4983559;28;20438;-74
2022/05/17 10:32:37;;;;;;;2.22;1.60;;;;;;;27.31;37.58;101460.47;4978287;28;20283;-75
2022/05/17 10:35:06;;;;;;;1.67;1.20;;;;;;;27.39;39.99;101452.81;4969117;28;20464;-76
2022/05/17 10:37:38;;;;;;;2.47;1.27;;;;;;;27.66;40.11;101449.69;5002581;28;20025;-76
2022/05/17 10:40:14;;;;;;;1.38;0.98;;;;;;;28.04;36.37;101437.56;5003226;28;20774;-75
2022/05/17 10:42:39;;;;;;;2.45;1.00;;;;;;;28.61;33.79;101445.09;4971090;28;20024;-75
2022/05/17 10:45:05;;;;;;;1.92;1.17;;;;;;;29.21;34.88;101437.53;4982389;28;20017;-74
2022/05/17 10:47:43;;;;;;;1.92;1.58;;;;;;;29.90;31.34;101441.19;4950278;28;21187;-76
2022/05/17 10:50:18;;;;;;;2.35;1.15;;;;;;;29.42;32.84;101438.75;4928986;28;20639;-75
2022/05/17 10:53:10;;;;;;;1.58;1.20;;;;;;;29.35;34.21;101431.81;4945026;28;20113;-75
2022/05/17 10:55:45;;;;;;;1.90;1.38;;;;;;;30.18;34.11;101420.25;4966591;28;20080;-75
2022/05/17 10:58:35;;;;;;;1.70;1.17;;;;;;;30.58;32.07;101430.91;4975649;28;20010;-75
2022/05/17 11:01:09;;;;;;;1.85;1.02;;;;;;;29.64;31.94;101421.63;4978712;28;20010;-75
2022/05/17 11:04:09;;;;;;;1.17;1.10;;;;;;;28.45;33.62;101419.41;4962511;28;20010;-76
2022/05/17 11:06:40;;;;;;;0.90;0.90;;;;;;;28.83;34.83;101419.94;4981708;28;20045;-75
2022/05/17 11:09:24;;;;;;;2.15;0.98;;;;;;;28.82;32.04;101422.91;4959197;28;20443;-75
2022/05/17 11:12:04;;;;;;;1.63;1.00;;;;;;;28.69;31.86;101426.72;4978221;28;20022;-75
2022/05/17 11:14:32;;;;;;;1.13;1.00;;;;;;;29.24;31.42;101414.44;4961436;28;20071;-75
2022/05/17 11:17:19;;;;;;;1.05;0.90;;;;;;;29.28;31.00;101410.97;4973493;28;20463;-75
2022/05/17 11:19:47;;;;;;;2.55;0.80;;;;;;;28.94;34.44;101413.59;4981720;28;20072;-74
2022/05/17 11:22:27;;;;;;;0.80;0.80;;;;;;;28.70;34.77;101410.16;4957832;28;20174;-75
2022/05/17 11:25:14;;;;;;;1.48;1.00;;;;;;;27.93;35.72;101405.72;4962359;28;20010;-75
2022/05/17 11:27:59;;;;;;;1.10;1.05;;;;;;;27.67;36.06;101407.03;4965060;28;20036;-75
2022/05/17 11:30:30;;;;;;;1.15;0.88;;;;;;;27.30;34.92;101404.44;4978909;28;20011;-75
2022/05/17 11:33:23;;;;;;;1.88;0.88;;;;;;;27.31;34.64;101406.91;4958096;28;20122;-75
2022/05/17 11:35:49;;;;;;;1.02;0.70;;;;;;;27.41;33.26;101407.22;4980743;28;20113;-75
2022/05/17 11:38:37;;;;;;;1.63;0.90;;;;;;;27.16;35.14;101403.81;4957543;28;20251;-76
2022/05/17 11:41:06;;;;;;;0.88;0.70;;;;;;;27.18;35.66;101407.97;4983560;28;20030;-75